메인 페이지
METAR-TAF:

METAR-TAF

공항 :

Uberaba, 미나스제라이스, 브라질

위도: 19-47S, 경도: 047-58W, 고도: 807m

현재 날씨관측

예보는 1 시간 16분 전, 21:00시(UTC)에 발표되었습니다.
동북동5kt
온도 26°C
습도 32%
기압 1022 hPa
시정 10km 이상
1500m 미만 상공 구름 및 적란운 없음

METAR: SBUR 132100Z 06005KT CAVOK 26/08 Q1022

시각: 19:16 (22:16 UTC)

예보

예보는 6 시간 46분 전, 15:30시(UTC)에 발표되었습니다.
예보 대상 시간: 13일 18시부터 14일 06시까지 (UTC)
동북동8kt
시정 10km 이상
1500m 미만 상공 구름 및 적란운 없음
확률 30% :
일시적
13일 19시부터 13일 22시까지 (UTC)
남남동5kt
전환 중
14일 01시부터 14일 03시까지 (UTC)
동북동10kt

TAF: SBUR 131530Z 1318/1406 07008KT CAVOK TX30/1318Z TN19/1405Z PROB30 TEMPO 1319/1322 15005KT BECMG 1401/1403 06010KT RMK PGH

4,000개 이상의 공항 관측 자료 및 예보 (METAR 및 TAF 보고).

지도상에서 검색 가능한 기상관측소가 노란 점과 빨간 점으로 표시되어 있습니다.

기상관측소 명을 보려면 표시 위로 마우스를 이동하세요.

날씨 관측과 예보를 보려면 클릭하세요.

지도 변경 : 확대하려면 엑스 표시가 있는 녹색 버튼, 축소하려면 빼기 표시가 있는 녹색 버튼, 다음 페이지의 지도를 보려면 녹색 화살표를 클릭하세요.


METAR-TAF: